Fairfax Station, Virginia
Current Conditions -  °F | °C
As of 3:58 AM on Friday 28 Nov 2014 (Local Time) from KDAA Reporting Station
Clear Clear  
Wind Chill: 25°   Ceiling: Unl
Heat Index: 32°   Visibility: 10mi
Dew Point: 21°   Wind: 7mph
Humidity: 65%   Direction: 290°WNW
Pressure: 30.23"   Gusts: NA
Location:  38.8°N, 77.32°W
Report Text: KDAA 280858Z AUTO 29006KT 10SM CLR 00/M06 A3023 RMK AO2 SLP241 T10011060 52014
Loading
Personal Weather Stations






























Interactive Weather Map New forecast layout! Learn more

10-Day Weather Forecast

Advertisements
Track Severe Weather on mobile